Darstellungsparameter: Aktuell verwendete Einstellungen:
Skalierung der Graphiken ... ?
xyx+y,   Skalierungsfaktor:      Skalierung: Modus: x, Faktor: 1
Darstellungszeitraum ... ?
Vom - - bis: - -   Zeitraum: 06.06.2014 - 07.06.2014
Min/Max/Avg-Anzeige ... ?
Zeige MMA aktuell
Zeige MMA Monat
Zeige MMA alles
Zeige --A aktuell
Zeige --A Monat
Zeige --A alles
Keine MMA-Anzeige
MMA:
Keine MMA-Graphiken
MMA-Basis: 06.06.2014 - 07.06.2014
Quicknavigation für Darstellung... ?
Tage:      1T, 2T, 3T, 5T -1T -2T -3T -5T +1T +2T +3T +5T
Wochen: 1W, 2W, 3W -1W -2W -3W +1W +2W +3W
Monate: 1M, 3M, 6M -1M -3M -6M +1M +3M +6M
Jahre:    1J, 3J, 5J, 10J -1J -3J -5J -10J +1J +3J +5J +10J
Nutze für die Darstellung ... ?
Originaldaten oder Mittelwerte auf ...
Stundenbasis Tagesbasis Wochenbasis
Monatsbasis Jahresbasis      Datenbasis: Original-Daten
Darstellen als:
Statistik (Auto) Statistik J:M      Darstellung:
Zur Graphik,    zurück zur Übersicht aller Sensoren.
 
Tabellarische Datenbersicht: ?
 
Sensor: Nr:Datum:Temp:Abs-Feuchte:Windchill:Wind:
Aussen-T/F 1 06-06-2014 00:00:00 10.6 C 7.81 g/m*3 10.6 C 1.6 km/h
2 06-06-2014 00:05:00 10.5 C 7.86 g/m*3 10.5 C 0 km/h
3 06-06-2014 00:10:00 10.3 C 7.76 g/m*3 10.3 C 0 km/h
4 06-06-2014 00:15:00 10.2 C 7.71 g/m*3 10.2 C 0 km/h
5 06-06-2014 00:20:00 10.1 C 7.75 g/m*3 10.1 C 0 km/h
6 06-06-2014 00:25:00 10 C 7.71 g/m*3 10 C 0 km/h
7 06-06-2014 00:30:00 9.9 C 7.66 g/m*3 9.9 C 0 km/h
8 06-06-2014 00:35:00 9.9 C 7.66 g/m*3 9.9 C 0 km/h
9 06-06-2014 00:40:00 9.8 C 7.7 g/m*3 9.8 C 0 km/h
10 06-06-2014 00:45:00 9.7 C 7.65 g/m*3 9.7 C 0 km/h
11 06-06-2014 00:50:00 9.7 C 7.74 g/m*3 9.7 C 0 km/h
12 06-06-2014 00:55:00 9.6 C 7.69 g/m*3 9.6 C 0 km/h
13 06-06-2014 01:00:00 9.5 C 7.65 g/m*3 9.5 C 0 km/h
14 06-06-2014 01:05:00 9.4 C 7.6 g/m*3 9.4 C 0 km/h
15 06-06-2014 01:10:00 9.3 C 7.64 g/m*3 9.3 C 0 km/h
16 06-06-2014 01:15:00 9.3 C 7.64 g/m*3 9.3 C 0 km/h
17 06-06-2014 01:20:00 9.2 C 7.68 g/m*3 9.2 C 0 km/h
18 06-06-2014 01:25:00 9.1 C 7.63 g/m*3 9.1 C 0 km/h
19 06-06-2014 01:30:00 9.1 C 7.63 g/m*3 9.1 C 0 km/h
20 06-06-2014 01:35:00 9.1 C 7.63 g/m*3 9.1 C 0 km/h
21 06-06-2014 01:40:00 9.1 C 7.54 g/m*3 9.1 C 0 km/h
22 06-06-2014 01:45:00 8.9 C 7.53 g/m*3 8.9 C 0 km/h
23 06-06-2014 01:50:00 8.9 C 7.53 g/m*3 8.9 C 0 km/h
24 06-06-2014 01:55:00 8.8 C 7.57 g/m*3 8.8 C 0 km/h
25 06-06-2014 02:00:00 8.7 C 7.52 g/m*3 8.7 C 0 km/h
Sensor: Nr:Datum:Temp:Abs-Feuchte:Windchill:Wind:
Aussen-T/F 26 06-06-2014 02:05:00 8.7 C 7.44 g/m*3 8.7 C 0 km/h
27 06-06-2014 02:10:00 8.7 C 7.52 g/m*3 8.7 C 0 km/h
28 06-06-2014 02:15:00 8.7 C 7.44 g/m*3 8.7 C 0 km/h
29 06-06-2014 02:20:00 8.7 C 7.52 g/m*3 8.7 C 0 km/h
30 06-06-2014 02:25:00 8.6 C 7.39 g/m*3 8.6 C 0 km/h
31 06-06-2014 02:30:00 8.4 C 7.38 g/m*3 8.4 C 0 km/h
32 06-06-2014 02:35:00 8.4 C 7.38 g/m*3 8.4 C 0 km/h
33 06-06-2014 02:40:00 8.4 C 7.38 g/m*3 8.4 C 0 km/h
34 06-06-2014 02:45:00 8.3 C 7.33 g/m*3 8.3 C 0 km/h
35 06-06-2014 02:50:00 8.3 C 7.42 g/m*3 8.3 C 0 km/h
36 06-06-2014 02:55:00 8.3 C 7.42 g/m*3 8.3 C 0 km/h
37 06-06-2014 03:00:00 8.3 C 7.42 g/m*3 8.3 C 0 km/h
38 06-06-2014 03:05:00 8.2 C 7.37 g/m*3 8.2 C 0 km/h
39 06-06-2014 03:10:00 8.2 C 7.37 g/m*3 8.2 C 0 km/h
40 06-06-2014 03:15:00 8.1 C 7.32 g/m*3 8.1 C 0 km/h
41 06-06-2014 03:20:00 8.1 C 7.41 g/m*3 8.1 C 0 km/h
42 06-06-2014 03:25:00 7.9 C 7.31 g/m*3 7.9 C 0 km/h
43 06-06-2014 03:30:00 7.9 C 7.31 g/m*3 7.9 C 0 km/h
44 06-06-2014 03:35:00 7.8 C 7.26 g/m*3 7.8 C 0 km/h
45 06-06-2014 03:40:00 7.8 C 7.35 g/m*3 7.8 C 0 km/h
46 06-06-2014 03:45:00 7.7 C 7.3 g/m*3 7.7 C 0 km/h
47 06-06-2014 03:50:00 7.7 C 7.3 g/m*3 7.7 C 0 km/h
48 06-06-2014 03:55:00 7.7 C 7.3 g/m*3 7.7 C 0 km/h
49 06-06-2014 04:00:00 7.6 C 7.25 g/m*3 7.6 C 0 km/h
50 06-06-2014 04:05:00 7.5 C 7.2 g/m*3 7.5 C 0 km/h
Sensor: Nr:Datum:Temp:Abs-Feuchte:Windchill:Wind:
Aussen-T/F 51 06-06-2014 04:10:00 7.4 C 7.24 g/m*3 7.4 C 0 km/h
52 06-06-2014 04:15:00 7.4 C 7.24 g/m*3 7.4 C 1.6 km/h
53 06-06-2014 04:20:00 7.3 C 7.19 g/m*3 7.3 C 0 km/h
54 06-06-2014 04:25:00 7.3 C 7.19 g/m*3 7.3 C 0 km/h
55 06-06-2014 04:30:00 7.3 C 7.19 g/m*3 7.3 C 0 km/h
56 06-06-2014 04:35:00 7.2 C 7.22 g/m*3 7.2 C 0 km/h
57 06-06-2014 04:40:00 7.2 C 7.22 g/m*3 7.2 C 0 km/h
58 06-06-2014 04:45:00 7.2 C 7.22 g/m*3 7.2 C 0 km/h
59 06-06-2014 04:50:00 7.2 C 7.22 g/m*3 7.2 C 0 km/h
60 06-06-2014 04:55:00 7.1 C 7.18 g/m*3 7.1 C 0 km/h
61 06-06-2014 05:00:00 7.1 C 7.18 g/m*3 7.1 C 0 km/h
62 06-06-2014 05:05:00 7 C 7.13 g/m*3 7 C 0 km/h
63 06-06-2014 05:10:00 7.1 C 7.25 g/m*3 7.1 C 0 km/h
64 06-06-2014 05:15:00 7 C 7.21 g/m*3 7 C 0 km/h
65 06-06-2014 05:20:00 7 C 7.21 g/m*3 7 C 0 km/h
66 06-06-2014 05:25:00 6.9 C 7.16 g/m*3 6.9 C 0 km/h
67 06-06-2014 05:30:00 6.8 C 7.11 g/m*3 6.8 C 0 km/h
68 06-06-2014 05:35:00 6.8 C 7.11 g/m*3 6.8 C 0 km/h
69 06-06-2014 05:40:00 6.8 C 7.11 g/m*3 6.8 C 0 km/h
70 06-06-2014 05:45:00 6.8 C 7.11 g/m*3 6.8 C 0 km/h
71 06-06-2014 05:50:00 6.8 C 7.11 g/m*3 6.8 C 0 km/h
72 06-06-2014 05:55:00 6.8 C 7.11 g/m*3 6.8 C 0 km/h
73 06-06-2014 06:00:00 6.8 C 7.19 g/m*3 6.8 C 0 km/h
74 06-06-2014 06:05:00 6.8 C 7.19 g/m*3 6.8 C 0 km/h
75 06-06-2014 06:10:00 6.8 C 7.19 g/m*3 6.8 C 0 km/h
Sensor: Nr:Datum:Temp:Abs-Feuchte:Windchill:Wind:
Aussen-T/F 76 06-06-2014 06:15:00 6.8 C 7.19 g/m*3 6.8 C 0 km/h
77 06-06-2014 06:20:00 6.8 C 7.19 g/m*3 6.8 C 0 km/h
78 06-06-2014 06:25:00 6.8 C 7.19 g/m*3 6.8 C 0 km/h
79 06-06-2014 06:30:00 6.9 C 7.24 g/m*3 6.9 C 0 km/h
80 06-06-2014 06:35:00 6.9 C 7.24 g/m*3 6.9 C 0 km/h
81 06-06-2014 06:40:00 6.9 C 7.24 g/m*3 6.9 C 0 km/h
82 06-06-2014 06:45:00 7 C 7.28 g/m*3 7 C 0 km/h
83 06-06-2014 06:50:00 7.1 C 7.33 g/m*3 7.1 C 0 km/h
84 06-06-2014 06:55:00 7.1 C 7.33 g/m*3 7.1 C 0 km/h
85 06-06-2014 07:00:00 7.2 C 7.38 g/m*3 7.2 C 0 km/h
86 06-06-2014 07:05:00 7.2 C 7.38 g/m*3 7.2 C 0 km/h
87 06-06-2014 07:10:00 7.3 C 7.43 g/m*3 7.3 C 0 km/h
88 06-06-2014 07:15:00 7.4 C 7.48 g/m*3 7.4 C 0 km/h
89 06-06-2014 07:20:00 7.5 C 7.52 g/m*3 7.5 C 1.6 km/h
90 06-06-2014 07:25:00 7.6 C 7.57 g/m*3 7.6 C 0 km/h
91 06-06-2014 07:30:00 7.7 C 7.62 g/m*3 7.7 C 0 km/h
92 06-06-2014 07:35:00 7.8 C 7.67 g/m*3 7.8 C 0 km/h
93 06-06-2014 07:40:00 8 C 7.77 g/m*3 8 C 0 km/h
94 06-06-2014 07:45:00 8.2 C 7.87 g/m*3 8.2 C 0 km/h
95 06-06-2014 07:50:00 8.5 C 8.03 g/m*3 8.5 C 0 km/h
96 06-06-2014 07:55:00 8.8 C 8.09 g/m*3 8.8 C 0 km/h
97 06-06-2014 08:00:00 9.1 C 8.25 g/m*3 9.1 C 0 km/h
98 06-06-2014 08:05:00 9.5 C 8.37 g/m*3 9.5 C 0 km/h
99 06-06-2014 08:10:00 9.8 C 8.44 g/m*3 9.8 C 0 km/h
100 06-06-2014 08:15:00 10.2 C 8.37 g/m*3 10.2 C 0 km/h
Sensor: Nr:Datum:Temp:Abs-Feuchte:Windchill:Wind:
Aussen-T/F 101 06-06-2014 08:20:00 10.4 C 8.29 g/m*3 10.4 C 0 km/h
102 06-06-2014 08:25:00 10.7 C 8.35 g/m*3 10.7 C 0 km/h
103 06-06-2014 08:30:00 10.9 C 8.36 g/m*3 10.9 C 0 km/h
104 06-06-2014 08:35:00 11.2 C 8.51 g/m*3 11.2 C 0 km/h
105 06-06-2014 08:40:00 11.5 C 8.78 g/m*3 11.5 C 0 km/h
106 06-06-2014 08:45:00 11.9 C 8.9 g/m*3 11.9 C 1.6 km/h
107 06-06-2014 08:50:00 12.4 C 9.07 g/m*3 12.4 C 0 km/h
108 06-06-2014 08:55:00 13 C 9.19 g/m*3 13 C 0 km/h
109 06-06-2014 09:00:00 13.3 C 9.01 g/m*3 13.3 C 1.6 km/h
110 06-06-2014 09:05:00 13.3 C 8.9 g/m*3 13.3 C 0 km/h
111 06-06-2014 09:10:00 13.3 C 8.9 g/m*3 13.3 C 1.6 km/h
112 06-06-2014 09:15:00 13.3 C 9.13 g/m*3 13.3 C 0 km/h
113 06-06-2014 09:20:00 13.3 C 9.24 g/m*3 13.3 C 0 km/h
114 06-06-2014 09:25:00 13.4 C 9.18 g/m*3 13.4 C 1.6 km/h
115 06-06-2014 09:30:00 13.5 C 9.24 g/m*3 13.5 C 4.8 km/h
116 06-06-2014 09:35:00 13.6 C 9.18 g/m*3 13.6 C 4.8 km/h
117 06-06-2014 09:40:00 13.7 C 9.24 g/m*3 13.7 C 1.6 km/h
118 06-06-2014 09:45:00 13.8 C 9.29 g/m*3 13.8 C 1.6 km/h
119 06-06-2014 09:50:00 14.1 C 9.47 g/m*3 14.1 C 3.2 km/h
120 06-06-2014 09:55:00 14.3 C 9.58 g/m*3 14.3 C 3.2 km/h
121 06-06-2014 10:00:00 14.7 C 9.69 g/m*3 14.7 C 3.2 km/h
122 06-06-2014 10:05:00 15.1 C 9.8 g/m*3 15.1 C 1.6 km/h
123 06-06-2014 10:10:00 15.5 C 10.18 g/m*3 15.5 C 3.2 km/h
124 06-06-2014 10:15:00 15.8 C 9.83 g/m*3 15.8 C 0 km/h
125 06-06-2014 10:20:00 16.3 C 10.27 g/m*3 16.3 C 1.6 km/h
Sensor: Nr:Datum:Temp:Abs-Feuchte:Windchill:Wind:
Aussen-T/F 126 06-06-2014 10:25:00 16.8 C 10.15 g/m*3 16.8 C 1.6 km/h
127 06-06-2014 10:30:00 17.2 C 9.96 g/m*3 17.2 C 1.6 km/h
128 06-06-2014 10:35:00 17.4 C 10.23 g/m*3 17.4 C 3.2 km/h
129 06-06-2014 10:40:00 17.4 C 10.52 g/m*3 17.4 C 3.2 km/h
130 06-06-2014 10:45:00 17.5 C 9.99 g/m*3 17.5 C 3.2 km/h
131 06-06-2014 10:50:00 17.6 C 10.35 g/m*3 17.6 C 3.2 km/h
132 06-06-2014 10:55:00 17.7 C 10.56 g/m*3 17.7 C 0 km/h
133 06-06-2014 11:00:00 17.8 C 10.93 g/m*3 17.8 C 1.6 km/h
134 06-06-2014 11:05:00 17.9 C 11.15 g/m*3 17.9 C 0 km/h
135 06-06-2014 11:10:00 17.7 C 11.16 g/m*3 17.7 C 0 km/h
136 06-06-2014 11:15:00 17.8 C 11.38 g/m*3 17.8 C 3.2 km/h
137 06-06-2014 11:20:00 18.2 C 10.57 g/m*3 18.2 C 4.8 km/h
138 06-06-2014 11:25:00 19.1 C 10.33 g/m*3 19.1 C 6.4 km/h
139 06-06-2014 11:30:00 20.2 C 10.32 g/m*3 20.2 C 8.1 km/h
140 06-06-2014 11:35:00 20.8 C 10.5 g/m*3 20.8 C 9.7 km/h
141 06-06-2014 11:40:00 21.1 C 10.69 g/m*3 21.1 C 11.3 km/h
142 06-06-2014 11:45:00 21.4 C 10.69 g/m*3 21.4 C 11.3 km/h
143 06-06-2014 11:50:00 21.7 C 10.87 g/m*3 21.7 C 8.1 km/h
144 06-06-2014 11:55:00 21.9 C 10.42 g/m*3 21.9 C 11.3 km/h
145 06-06-2014 12:00:00 22.2 C 10.41 g/m*3 22.2 C 11.3 km/h
146 06-06-2014 12:05:00 22.3 C 9.87 g/m*3 22.3 C 11.3 km/h
147 06-06-2014 12:10:00 22.6 C 9.84 g/m*3 22.6 C 9.7 km/h
148 06-06-2014 12:15:00 22.8 C 9.96 g/m*3 22.8 C 4.8 km/h
149 06-06-2014 12:20:00 23.1 C 11.16 g/m*3 23.1 C 6.4 km/h
150 06-06-2014 12:25:00 23.3 C 9.83 g/m*3 23.3 C 6.4 km/h
Sensor: Nr:Datum:Temp:Abs-Feuchte:Windchill:Wind:
Aussen-T/F 151 06-06-2014 12:30:00 23.4 C 10.3 g/m*3 23.4 C 6.4 km/h
152 06-06-2014 12:35:00 23.6 C 9.57 g/m*3 23.6 C 11.3 km/h
153 06-06-2014 12:40:00 23.5 C 9.52 g/m*3 23.5 C 6.4 km/h
154 06-06-2014 12:45:00 23.6 C 8.93 g/m*3 23.6 C 4.8 km/h
155 06-06-2014 12:50:00 23.8 C 9.25 g/m*3 23.8 C 4.8 km/h
156 06-06-2014 12:55:00 23.9 C 8.65 g/m*3 23.9 C 4.8 km/h
157 06-06-2014 13:00:00 24.1 C 8.97 g/m*3 24.1 C 3.2 km/h
158 06-06-2014 13:05:00 24.3 C 9.52 g/m*3 24.3 C 6.4 km/h
159 06-06-2014 13:10:00 24.5 C 10.07 g/m*3 24.5 C 8.1 km/h
160 06-06-2014 13:15:00 24.6 C 8.78 g/m*3 24.6 C 6.4 km/h
161 06-06-2014 13:20:00 24.4 C 9.79 g/m*3 24.4 C 8.1 km/h
162 06-06-2014 13:25:00 24.7 C 9.05 g/m*3 24.7 C 6.4 km/h
163 06-06-2014 13:30:00 24.8 C 10.02 g/m*3 24.8 C 6.4 km/h
164 06-06-2014 13:35:00 25 C 9.21 g/m*3 25 C 9.7 km/h
165 06-06-2014 13:40:00 25 C 9.44 g/m*3 25 C 11.3 km/h
166 06-06-2014 13:45:00 24.8 C 9.79 g/m*3 24.8 C 6.4 km/h
167 06-06-2014 13:50:00 25 C 8.75 g/m*3 25 C 6.4 km/h
168 06-06-2014 13:55:00 25.3 C 10.07 g/m*3 25.3 C 6.4 km/h
169 06-06-2014 14:00:00 25.6 C 9.28 g/m*3 25.6 C 6.4 km/h
170 06-06-2014 14:05:00 25.6 C 10 g/m*3 25.6 C 9.7 km/h
171 06-06-2014 14:10:00 25.7 C 10.29 g/m*3 25.7 C 6.4 km/h
172 06-06-2014 14:15:00 25.8 C 9.87 g/m*3 25.8 C 11.3 km/h
173 06-06-2014 14:20:00 25.8 C 9.39 g/m*3 25.8 C 14.5 km/h
174 06-06-2014 14:25:00 25.9 C 9.44 g/m*3 25.9 C 14.5 km/h
175 06-06-2014 14:30:00 26 C 9.98 g/m*3 26 C 14.5 km/h
Sensor: Nr:Datum:Temp:Abs-Feuchte:Windchill:Wind:
Aussen-T/F 176 06-06-2014 14:35:00 26.1 C 9.79 g/m*3 26.1 C 12.9 km/h
177 06-06-2014 14:40:00 26.2 C 10.34 g/m*3 26.2 C 11.3 km/h
178 06-06-2014 14:45:00 26.2 C 10.09 g/m*3 26.2 C 11.3 km/h
179 06-06-2014 14:50:00 26.3 C 9.9 g/m*3 26.3 C 6.4 km/h
180 06-06-2014 14:55:00 26.4 C 10.21 g/m*3 26.4 C 6.4 km/h
181 06-06-2014 15:00:00 26.7 C 9.87 g/m*3 26.7 C 6.4 km/h
182 06-06-2014 15:05:00 26.6 C 9.57 g/m*3 26.6 C 6.4 km/h
183 06-06-2014 15:10:00 26.5 C 10.01 g/m*3 26.5 C 8.1 km/h
184 06-06-2014 15:15:00 26.6 C 9.82 g/m*3 26.6 C 4.8 km/h
185 06-06-2014 15:20:00 26.7 C 9.11 g/m*3 26.7 C 8.1 km/h
186 06-06-2014 15:25:00 26.7 C 9.37 g/m*3 26.7 C 4.8 km/h
187 06-06-2014 15:30:00 26.7 C 9.62 g/m*3 26.7 C 4.8 km/h
188 06-06-2014 15:35:00 26.8 C 9.42 g/m*3 26.8 C 11.3 km/h
189 06-06-2014 15:40:00 26.9 C 9.73 g/m*3 26.9 C 8.1 km/h
190 06-06-2014 15:45:00 27.4 C 10.52 g/m*3 27.4 C 6.4 km/h
191 06-06-2014 15:50:00 27.8 C 10.22 g/m*3 27.8 C 6.4 km/h
192 06-06-2014 15:55:00 27.8 C 10.22 g/m*3 27.8 C 8.1 km/h
193 06-06-2014 16:00:00 27.8 C 10.22 g/m*3 27.8 C 12.9 km/h
194 06-06-2014 16:05:00 27.6 C 9.31 g/m*3 27.6 C 9.7 km/h
195 06-06-2014 16:10:00 27.3 C 11.25 g/m*3 27.3 C 6.4 km/h
196 06-06-2014 16:15:00 27.1 C 9.32 g/m*3 27.1 C 4.8 km/h
197 06-06-2014 16:20:00 27.2 C 10.15 g/m*3 27.2 C 9.7 km/h
198 06-06-2014 16:25:00 27.8 C 9.68 g/m*3 27.8 C 9.7 km/h
199 06-06-2014 16:30:00 28.2 C 10.17 g/m*3 28.2 C 11.3 km/h
200 06-06-2014 16:35:00 27.8 C 10.49 g/m*3 27.8 C 6.4 km/h
Sensor: Nr:Datum:Temp:Abs-Feuchte:Windchill:Wind:
Aussen-T/F 201 06-06-2014 16:40:00 27.3 C 9.68 g/m*3 27.3 C 3.2 km/h
202 06-06-2014 16:45:00 27.2 C 9.63 g/m*3 27.2 C 6.4 km/h
203 06-06-2014 16:50:00 27.4 C 9.21 g/m*3 27.4 C 3.2 km/h
204 06-06-2014 16:55:00 27.4 C 9.21 g/m*3 27.4 C 4.8 km/h
205 06-06-2014 17:00:00 27.2 C 9.63 g/m*3 27.2 C 4.8 km/h
206 06-06-2014 17:05:00 27.5 C 10.58 g/m*3 27.5 C 11.3 km/h
207 06-06-2014 17:10:00 27.9 C 9.74 g/m*3 27.9 C 3.2 km/h
208 06-06-2014 17:15:00 28.1 C 9.3 g/m*3 28.1 C 3.2 km/h
209 06-06-2014 17:20:00 27.8 C 8.88 g/m*3 27.8 C 3.2 km/h
210 06-06-2014 17:25:00 27.7 C 10.16 g/m*3 27.7 C 0 km/h
211 06-06-2014 17:30:00 27.9 C 9.74 g/m*3 27.9 C 6.4 km/h
212 06-06-2014 17:35:00 27.8 C 11.57 g/m*3 27.8 C 6.4 km/h
213 06-06-2014 17:40:00 27 C 11.58 g/m*3 27 C 1.6 km/h
214 06-06-2014 17:45:00 25.8 C 12.76 g/m*3 25.8 C 1.6 km/h
215 06-06-2014 17:50:00 25.7 C 10.53 g/m*3 25.7 C 8.1 km/h
216 06-06-2014 17:55:00 26.4 C 11.7 g/m*3 26.4 C 8.1 km/h
217 06-06-2014 18:00:00 27.3 C 10.2 g/m*3 27.3 C 8.1 km/h
218 06-06-2014 18:05:00 27.8 C 11.03 g/m*3 27.8 C 11.3 km/h
219 06-06-2014 18:10:00 28.1 C 10.94 g/m*3 28.1 C 8.1 km/h
220 06-06-2014 18:15:00 28.2 C 10.45 g/m*3 28.2 C 9.7 km/h
221 06-06-2014 18:20:00 28.1 C 10.12 g/m*3 28.1 C 11.3 km/h
222 06-06-2014 18:25:00 28.2 C 10.45 g/m*3 28.2 C 9.7 km/h
223 06-06-2014 18:30:00 28.3 C 10.23 g/m*3 28.3 C 11.3 km/h
224 06-06-2014 18:35:00 28.4 C 10.56 g/m*3 28.4 C 6.4 km/h
225 06-06-2014 18:40:00 28.3 C 10.51 g/m*3 28.3 C 9.7 km/h
Sensor: Nr:Datum:Temp:Abs-Feuchte:Windchill:Wind:
Aussen-T/F 226 06-06-2014 18:45:00 28 C 9.79 g/m*3 28 C 8.1 km/h
227 06-06-2014 18:50:00 28.1 C 10.39 g/m*3 28.1 C 9.7 km/h
228 06-06-2014 18:55:00 28.1 C 11.76 g/m*3 28.1 C 6.4 km/h
229 06-06-2014 19:00:00 28 C 10.88 g/m*3 28 C 8.1 km/h
230 06-06-2014 19:05:00 28.1 C 10.66 g/m*3 28.1 C 6.4 km/h
231 06-06-2014 19:10:00 27.9 C 10.01 g/m*3 27.9 C 6.4 km/h
232 06-06-2014 19:15:00 27.6 C 10.11 g/m*3 27.6 C 8.1 km/h
233 06-06-2014 19:20:00 27.3 C 10.2 g/m*3 27.3 C 9.7 km/h
234 06-06-2014 19:25:00 27.1 C 10.35 g/m*3 27.1 C 9.7 km/h
235 06-06-2014 19:30:00 26.7 C 12.4 g/m*3 26.7 C 6.4 km/h
236 06-06-2014 19:35:00 26 C 12.17 g/m*3 26 C 0 km/h
237 06-06-2014 19:40:00 25.3 C 12.17 g/m*3 25.3 C 1.6 km/h
238 06-06-2014 19:45:00 24.8 C 11.61 g/m*3 24.8 C 4.8 km/h
239 06-06-2014 19:50:00 24.6 C 10.58 g/m*3 24.6 C 4.8 km/h
240 06-06-2014 19:55:00 24.6 C 13.05 g/m*3 24.6 C 1.6 km/h
241 06-06-2014 20:00:00 24.2 C 12.76 g/m*3 24.2 C 1.6 km/h
242 06-06-2014 20:05:00 23.9 C 12.55 g/m*3 23.9 C 1.6 km/h
243 06-06-2014 20:10:00 23.6 C 12.97 g/m*3 23.6 C 3.2 km/h
244 06-06-2014 20:15:00 23 C 12.74 g/m*3 23 C 0 km/h
245 06-06-2014 20:20:00 22.6 C 12.86 g/m*3 22.6 C 1.6 km/h
246 06-06-2014 20:25:00 22.3 C 12.64 g/m*3 22.3 C 0 km/h
247 06-06-2014 20:30:00 22 C 12.42 g/m*3 22 C 1.6 km/h
248 06-06-2014 20:35:00 21.8 C 12.66 g/m*3 21.8 C 0 km/h
249 06-06-2014 20:40:00 21.6 C 12.52 g/m*3 21.6 C 0 km/h
250 06-06-2014 20:45:00 21.4 C 12.19 g/m*3 21.4 C 1.6 km/h
Sensor: Nr:Datum:Temp:Abs-Feuchte:Windchill:Wind:
Aussen-T/F 251 06-06-2014 20:50:00 21.3 C 12.49 g/m*3 21.3 C 1.6 km/h
252 06-06-2014 20:55:00 21.2 C 12.6 g/m*3 21.2 C 0 km/h
253 06-06-2014 21:00:00 21 C 12.27 g/m*3 21 C 1.6 km/h
254 06-06-2014 21:05:00 20.8 C 12.31 g/m*3 20.8 C 1.6 km/h
255 06-06-2014 21:10:00 20.4 C 12.21 g/m*3 20.4 C 0 km/h
256 06-06-2014 21:15:00 20.2 C 11.89 g/m*3 20.2 C 1.6 km/h
257 06-06-2014 21:20:00 19.9 C 11.85 g/m*3 19.9 C 0 km/h
258 06-06-2014 21:25:00 19.7 C 11.89 g/m*3 19.7 C 1.6 km/h
259 06-06-2014 21:30:00 19.6 C 11.99 g/m*3 19.6 C 1.6 km/h
260 06-06-2014 21:35:00 19.3 C 11.61 g/m*3 19.3 C 1.6 km/h
261 06-06-2014 21:40:00 19.2 C 11.71 g/m*3 19.2 C 1.6 km/h
262 06-06-2014 21:45:00 19.1 C 11.8 g/m*3 19.1 C 1.6 km/h
263 06-06-2014 21:50:00 18.9 C 11.5 g/m*3 18.9 C 1.6 km/h
264 06-06-2014 21:55:00 18.8 C 11.76 g/m*3 18.8 C 1.6 km/h
265 06-06-2014 22:00:00 18.7 C 11.53 g/m*3 18.7 C 1.6 km/h
266 06-06-2014 22:05:00 18.6 C 11.62 g/m*3 18.6 C 1.6 km/h
267 06-06-2014 22:10:00 18.4 C 11.32 g/m*3 18.4 C 1.6 km/h
268 06-06-2014 22:15:00 18.4 C 11.48 g/m*3 18.4 C 0 km/h
269 06-06-2014 22:20:00 18.3 C 11.26 g/m*3 18.3 C 0 km/h
270 06-06-2014 22:25:00 18.2 C 11.35 g/m*3 18.2 C 0 km/h
271 06-06-2014 22:30:00 18.1 C 11.59 g/m*3 18.1 C 1.6 km/h
272 06-06-2014 22:35:00 18 C 11.37 g/m*3 18 C 1.6 km/h
273 06-06-2014 22:40:00 17.9 C 11.15 g/m*3 17.9 C 0 km/h
274 06-06-2014 22:45:00 17.9 C 10.84 g/m*3 17.9 C 0 km/h
275 06-06-2014 22:50:00 17.9 C 11.15 g/m*3 17.9 C 0 km/h
Sensor: Nr:Datum:Temp:Abs-Feuchte:Windchill:Wind:
Aussen-T/F 276 06-06-2014 22:55:00 17.8 C 11.38 g/m*3 17.8 C 1.6 km/h
277 06-06-2014 23:00:00 17.7 C 11.32 g/m*3 17.7 C 1.6 km/h
278 06-06-2014 23:05:00 17.6 C 11.1 g/m*3 17.6 C 1.6 km/h
279 06-06-2014 23:10:00 17.5 C 10.88 g/m*3 17.5 C 0 km/h
280 06-06-2014 23:15:00 17.4 C 11.26 g/m*3 17.4 C 0 km/h
281 06-06-2014 23:20:00 17.4 C 11.26 g/m*3 17.4 C 0 km/h
282 06-06-2014 23:25:00 17.3 C 11.34 g/m*3 17.3 C 1.6 km/h
283 06-06-2014 23:30:00 17.2 C 10.84 g/m*3 17.2 C 0 km/h
284 06-06-2014 23:35:00 17.2 C 10.69 g/m*3 17.2 C 0 km/h
285 06-06-2014 23:40:00 17.2 C 11.13 g/m*3 17.2 C 0 km/h
286 06-06-2014 23:45:00 17.1 C 10.92 g/m*3 17.1 C 0 km/h
287 06-06-2014 23:50:00 16.8 C 10.87 g/m*3 16.8 C 0 km/h
288 06-06-2014 23:55:00 16.7 C 10.94 g/m*3 16.7 C 0 km/h
289 07-06-2014 00:00:00 16.5 C 10.81 g/m*3 16.5 C 0 km/h
290 07-06-2014 00:05:00 16.4 C 10.47 g/m*3 16.4 C 0 km/h
291 07-06-2014 00:10:00 16.4 C 10.47 g/m*3 16.4 C 0 km/h
292 07-06-2014 00:15:00 16.3 C 10.54 g/m*3 16.3 C 0 km/h
293 07-06-2014 00:20:00 16.2 C 10.48 g/m*3 16.2 C 3.2 km/h
294 07-06-2014 00:25:00 16.1 C 10.55 g/m*3 16.1 C 1.6 km/h
295 07-06-2014 00:30:00 15.9 C 10.43 g/m*3 15.9 C 0 km/h
296 07-06-2014 00:35:00 15.8 C 10.5 g/m*3 15.8 C 0 km/h
297 07-06-2014 00:40:00 15.7 C 10.57 g/m*3 15.7 C 0 km/h
298 07-06-2014 00:45:00 15.6 C 10.64 g/m*3 15.6 C 0 km/h
299 07-06-2014 00:50:00 15.4 C 10.38 g/m*3 15.4 C 0 km/h
300 07-06-2014 00:55:00 15.2 C 10.38 g/m*3 15.2 C 0 km/h
Sensor: Nr:Datum:Temp:Abs-Feuchte:Windchill:Wind:
Aussen-T/F 301 07-06-2014 01:00:00 15.2 C 10.38 g/m*3 15.2 C 0 km/h
302 07-06-2014 01:05:00 15.1 C 10.45 g/m*3 15.1 C 0 km/h
303 07-06-2014 01:10:00 15.1 C 10.45 g/m*3 15.1 C 0 km/h
304 07-06-2014 01:15:00 14.9 C 10.32 g/m*3 14.9 C 0 km/h
305 07-06-2014 01:20:00 14.9 C 10.32 g/m*3 14.9 C 0 km/h
306 07-06-2014 01:25:00 14.8 C 10.39 g/m*3 14.8 C 0 km/h
307 07-06-2014 01:30:00 14.8 C 10.39 g/m*3 14.8 C 0 km/h
308 07-06-2014 01:35:00 14.6 C 10.26 g/m*3 14.6 C 0 km/h
309 07-06-2014 01:40:00 14.5 C 10.32 g/m*3 14.5 C 0 km/h
310 07-06-2014 01:45:00 14.4 C 10.26 g/m*3 14.4 C 0 km/h
311 07-06-2014 01:50:00 14.2 C 10.01 g/m*3 14.2 C 0 km/h
312 07-06-2014 01:55:00 14.1 C 9.95 g/m*3 14.1 C 0 km/h
313 07-06-2014 02:00:00 14.1 C 10.07 g/m*3 14.1 C 0 km/h
314 07-06-2014 02:05:00 14 C 10.01 g/m*3 14 C 0 km/h
315 07-06-2014 02:10:00 14 C 10.01 g/m*3 14 C 0 km/h
316 07-06-2014 02:15:00 14 C 10.13 g/m*3 14 C 0 km/h
317 07-06-2014 02:20:00 14 C 10.01 g/m*3 14 C 0 km/h
318 07-06-2014 02:25:00 14 C 10.01 g/m*3 14 C 0 km/h
319 07-06-2014 02:30:00 14 C 10.01 g/m*3 14 C 0 km/h
320 07-06-2014 02:35:00 13.9 C 9.95 g/m*3 13.9 C 0 km/h
321 07-06-2014 02:40:00 13.8 C 10.01 g/m*3 13.8 C 0 km/h
322 07-06-2014 02:45:00 13.7 C 9.95 g/m*3 13.7 C 0 km/h
323 07-06-2014 02:50:00 13.7 C 9.95 g/m*3 13.7 C 0 km/h
324 07-06-2014 02:55:00 13.6 C 10 g/m*3 13.6 C 0 km/h
325 07-06-2014 03:00:00 13.5 C 9.94 g/m*3 13.5 C 0 km/h
Sensor: Nr:Datum:Temp:Abs-Feuchte:Windchill:Wind:
Aussen-T/F 326 07-06-2014 03:05:00 13.4 C 9.88 g/m*3 13.4 C 0 km/h
327 07-06-2014 03:10:00 13.4 C 9.88 g/m*3 13.4 C 0 km/h
328 07-06-2014 03:15:00 13.3 C 9.94 g/m*3 13.3 C 0 km/h
329 07-06-2014 03:20:00 13.3 C 9.94 g/m*3 13.3 C 0 km/h
330 07-06-2014 03:25:00 13.2 C 9.87 g/m*3 13.2 C 0 km/h
331 07-06-2014 03:30:00 13.1 C 9.81 g/m*3 13.1 C 0 km/h
332 07-06-2014 03:35:00 12.9 C 9.81 g/m*3 12.9 C 0 km/h
333 07-06-2014 03:40:00 12.9 C 9.81 g/m*3 12.9 C 0 km/h
334 07-06-2014 03:45:00 12.8 C 9.74 g/m*3 12.8 C 0 km/h
335 07-06-2014 03:50:00 12.8 C 9.74 g/m*3 12.8 C 0 km/h
336 07-06-2014 03:55:00 12.8 C 9.74 g/m*3 12.8 C 0 km/h
337 07-06-2014 04:00:00 12.7 C 9.68 g/m*3 12.7 C 0 km/h
338 07-06-2014 04:05:00 12.7 C 9.68 g/m*3 12.7 C 0 km/h
339 07-06-2014 04:10:00 12.7 C 9.8 g/m*3 12.7 C 0 km/h
340 07-06-2014 04:15:00 12.6 C 9.74 g/m*3 12.6 C 0 km/h
341 07-06-2014 04:20:00 12.5 C 9.68 g/m*3 12.5 C 0 km/h
342 07-06-2014 04:25:00 12.4 C 9.72 g/m*3 12.4 C 0 km/h
343 07-06-2014 04:30:00 12.4 C 9.72 g/m*3 12.4 C 0 km/h
344 07-06-2014 04:35:00 12.3 C 9.77 g/m*3 12.3 C 0 km/h
345 07-06-2014 04:40:00 12.3 C 9.66 g/m*3 12.3 C 0 km/h
346 07-06-2014 04:45:00 12.3 C 9.66 g/m*3 12.3 C 0 km/h
347 07-06-2014 04:50:00 12.2 C 9.6 g/m*3 12.2 C 0 km/h
348 07-06-2014 04:55:00 12.2 C 9.6 g/m*3 12.2 C 0 km/h
349 07-06-2014 05:00:00 12.2 C 9.6 g/m*3 12.2 C 0 km/h
350 07-06-2014 05:05:00 12.2 C 9.71 g/m*3 12.2 C 0 km/h
Sensor: Nr:Datum:Temp:Abs-Feuchte:Windchill:Wind:
Aussen-T/F 351 07-06-2014 05:10:00 12.1 C 9.65 g/m*3 12.1 C 0 km/h
352 07-06-2014 05:15:00 12.1 C 9.65 g/m*3 12.1 C 0 km/h
353 07-06-2014 05:20:00 12.1 C 9.65 g/m*3 12.1 C 0 km/h
354 07-06-2014 05:25:00 12.1 C 9.76 g/m*3 12.1 C 0 km/h
355 07-06-2014 05:30:00 12.1 C 9.76 g/m*3 12.1 C 0 km/h
356 07-06-2014 05:35:00 12.1 C 9.76 g/m*3 12.1 C 0 km/h
357 07-06-2014 05:40:00 12 C 9.7 g/m*3 12 C 0 km/h
358 07-06-2014 05:45:00 12 C 9.7 g/m*3 12 C 0 km/h
359 07-06-2014 05:50:00 12 C 9.7 g/m*3 12 C 0 km/h
360 07-06-2014 05:55:00 12.1 C 9.76 g/m*3 12.1 C 0 km/h
361 07-06-2014 06:00:00 12.1 C 9.76 g/m*3 12.1 C 0 km/h
362 07-06-2014 06:05:00 12.1 C 9.76 g/m*3 12.1 C 0 km/h
363 07-06-2014 06:10:00 12.2 C 9.82 g/m*3 12.2 C 0 km/h
364 07-06-2014 06:15:00 12.2 C 9.82 g/m*3 12.2 C 0 km/h
365 07-06-2014 06:20:00 12.2 C 9.82 g/m*3 12.2 C 0 km/h
366 07-06-2014 06:25:00 12.2 C 9.82 g/m*3 12.2 C 0 km/h
367 07-06-2014 06:30:00 12.2 C 9.93 g/m*3 12.2 C 0 km/h
368 07-06-2014 06:35:00 12.2 C 9.93 g/m*3 12.2 C 0 km/h
369 07-06-2014 06:40:00 12.2 C 9.93 g/m*3 12.2 C 0 km/h
370 07-06-2014 06:45:00 12.3 C 9.99 g/m*3 12.3 C 0 km/h
371 07-06-2014 06:50:00 12.3 C 9.99 g/m*3 12.3 C 0 km/h
372 07-06-2014 06:55:00 12.4 C 10.05 g/m*3 12.4 C 0 km/h
373 07-06-2014 07:00:00 12.6 C 10.18 g/m*3 12.6 C 0 km/h
374 07-06-2014 07:05:00 12.7 C 10.24 g/m*3 12.7 C 0 km/h
375 07-06-2014 07:10:00 12.8 C 10.19 g/m*3 12.8 C 0 km/h
Sensor: Nr:Datum:Temp:Abs-Feuchte:Windchill:Wind:
Aussen-T/F 376 07-06-2014 07:15:00 12.9 C 10.26 g/m*3 12.9 C 0 km/h
377 07-06-2014 07:20:00 13.1 C 10.38 g/m*3 13.1 C 0 km/h
378 07-06-2014 07:25:00 13.1 C 10.27 g/m*3 13.1 C 0 km/h
379 07-06-2014 07:30:00 13.2 C 10.33 g/m*3 13.2 C 0 km/h
380 07-06-2014 07:35:00 13.3 C 10.4 g/m*3 13.3 C 0 km/h
381 07-06-2014 07:40:00 13.4 C 10.46 g/m*3 13.4 C 0 km/h
382 07-06-2014 07:45:00 13.6 C 10.71 g/m*3 13.6 C 0 km/h
383 07-06-2014 07:50:00 13.8 C 10.72 g/m*3 13.8 C 0 km/h
384 07-06-2014 07:55:00 14.1 C 10.68 g/m*3 14.1 C 1.6 km/h
385 07-06-2014 08:00:00 14.4 C 10.88 g/m*3 14.4 C 0 km/h
386 07-06-2014 08:05:00 14.6 C 10.89 g/m*3 14.6 C 0 km/h
387 07-06-2014 08:10:00 14.9 C 11.09 g/m*3 14.9 C 0 km/h
388 07-06-2014 08:15:00 15.2 C 11.16 g/m*3 15.2 C 0 km/h
389 07-06-2014 08:20:00 15.6 C 11.17 g/m*3 15.6 C 0 km/h
390 07-06-2014 08:25:00 15.8 C 11.31 g/m*3 15.8 C 0 km/h
391 07-06-2014 08:30:00 16.1 C 11.38 g/m*3 16.1 C 0 km/h
392 07-06-2014 08:35:00 16.3 C 11.52 g/m*3 16.3 C 0 km/h
393 07-06-2014 08:40:00 16.4 C 11.45 g/m*3 16.4 C 0 km/h
394 07-06-2014 08:45:00 16.7 C 11.51 g/m*3 16.7 C 0 km/h
395 07-06-2014 08:50:00 16.8 C 11.58 g/m*3 16.8 C 0 km/h
396 07-06-2014 08:55:00 17.1 C 11.65 g/m*3 17.1 C 0 km/h
397 07-06-2014 09:00:00 17.3 C 11.93 g/m*3 17.3 C 1.6 km/h
398 07-06-2014 09:05:00 17.5 C 11.78 g/m*3 17.5 C 0 km/h
399 07-06-2014 09:10:00 17.7 C 11.92 g/m*3 17.7 C 0 km/h
400 07-06-2014 09:15:00 17.4 C 11.86 g/m*3 17.4 C 0 km/h
Sensor: Nr:Datum:Temp:Abs-Feuchte:Windchill:Wind:
Aussen-T/F 401 07-06-2014 09:20:00 17.4 C 11.86 g/m*3 17.4 C 0 km/h
402 07-06-2014 09:25:00 17.4 C 12 g/m*3 17.4 C 0 km/h
403 07-06-2014 09:30:00 17.3 C 12.08 g/m*3 17.3 C 0 km/h
404 07-06-2014 09:35:00 17.2 C 12.01 g/m*3 17.2 C 0 km/h
405 07-06-2014 09:40:00 17.3 C 12.08 g/m*3 17.3 C 0 km/h
406 07-06-2014 09:45:00 17.4 C 12.3 g/m*3 17.4 C 0 km/h
407 07-06-2014 09:50:00 17.6 C 12.45 g/m*3 17.6 C 0 km/h
408 07-06-2014 09:55:00 18 C 12.59 g/m*3 18 C 0 km/h
409 07-06-2014 10:00:00 18.4 C 12.74 g/m*3 18.4 C 0 km/h
410 07-06-2014 10:05:00 18.9 C 12.96 g/m*3 18.9 C 0 km/h
411 07-06-2014 10:10:00 19.3 C 13.1 g/m*3 19.3 C 0 km/h
412 07-06-2014 10:15:00 19.8 C 13.32 g/m*3 19.8 C 0 km/h
413 07-06-2014 10:20:00 20 C 13.48 g/m*3 20 C 0 km/h
414 07-06-2014 10:25:00 20.4 C 13.44 g/m*3 20.4 C 0 km/h
415 07-06-2014 10:30:00 20.6 C 13.42 g/m*3 20.6 C 0 km/h
416 07-06-2014 10:35:00 20.8 C 13.76 g/m*3 20.8 C 0 km/h
417 07-06-2014 10:40:00 21.1 C 13.82 g/m*3 21.1 C 0 km/h
418 07-06-2014 10:45:00 21.4 C 13.87 g/m*3 21.4 C 0 km/h
419 07-06-2014 10:50:00 21.4 C 14.25 g/m*3 21.4 C 0 km/h
420 07-06-2014 10:55:00 21.6 C 14.41 g/m*3 21.6 C 0 km/h
421 07-06-2014 11:00:00 21.8 C 14.2 g/m*3 21.8 C 1.6 km/h
422 07-06-2014 11:05:00 21.8 C 14.58 g/m*3 21.8 C 0 km/h
423 07-06-2014 11:10:00 22.1 C 14.64 g/m*3 22.1 C 1.6 km/h
424 07-06-2014 11:15:00 22.9 C 14.31 g/m*3 22.9 C 3.2 km/h
425 07-06-2014 11:20:00 23.8 C 14.84 g/m*3 23.8 C 4.8 km/h
Sensor: Nr:Datum:Temp:Abs-Feuchte:Windchill:Wind:
Aussen-T/F 426 07-06-2014 11:25:00 24.2 C 15.18 g/m*3 24.2 C 1.6 km/h
427 07-06-2014 11:30:00 24.8 C 13.88 g/m*3 24.8 C 4.8 km/h
428 07-06-2014 11:35:00 25.4 C 13.42 g/m*3 25.4 C 6.4 km/h
429 07-06-2014 11:40:00 26.2 C 13.05 g/m*3 26.2 C 9.7 km/h
430 07-06-2014 11:45:00 26.9 C 14.08 g/m*3 26.9 C 8.1 km/h
431 07-06-2014 11:50:00 27.4 C 13.16 g/m*3 27.4 C 1.6 km/h
432 07-06-2014 11:55:00 27.7 C 13.37 g/m*3 27.7 C 3.2 km/h
433 07-06-2014 12:00:00 27.8 C 13.99 g/m*3 27.8 C 4.8 km/h
434 07-06-2014 12:05:00 28.1 C 13.4 g/m*3 28.1 C 8.1 km/h
435 07-06-2014 12:10:00 28.7 C 14.69 g/m*3 28.7 C 8.1 km/h
436 07-06-2014 12:15:00 28.8 C 12.79 g/m*3 28.8 C 4.8 km/h
437 07-06-2014 12:20:00 28.7 C 14.13 g/m*3 28.7 C 4.8 km/h
438 07-06-2014 12:25:00 28.5 C 13.42 g/m*3 28.5 C 4.8 km/h
439 07-06-2014 12:30:00 28.5 C 12.58 g/m*3 28.5 C 6.4 km/h
440 07-06-2014 12:35:00 28.6 C 12.93 g/m*3 28.6 C 6.4 km/h
441 07-06-2014 12:40:00 28.7 C 12.72 g/m*3 28.7 C 6.4 km/h
442 07-06-2014 12:45:00 28.9 C 14.57 g/m*3 28.9 C 6.4 km/h
443 07-06-2014 12:50:00 29.1 C 12.71 g/m*3 29.1 C 4.8 km/h
444 07-06-2014 12:55:00 29.2 C 13.94 g/m*3 29.2 C 6.4 km/h
445 07-06-2014 13:00:00 29.2 C 12.2 g/m*3 29.2 C 6.4 km/h
446 07-06-2014 13:05:00 29.2 C 13.36 g/m*3 29.2 C 4.8 km/h
447 07-06-2014 13:10:00 29.3 C 14.31 g/m*3 29.3 C 3.2 km/h
448 07-06-2014 13:15:00 29.4 C 13.8 g/m*3 29.4 C 8.1 km/h
449 07-06-2014 13:20:00 29.6 C 12.46 g/m*3 29.6 C 8.1 km/h
450 07-06-2014 13:25:00 29.8 C 13.2 g/m*3 29.8 C 4.8 km/h
Sensor: Nr:Datum:Temp:Abs-Feuchte:Windchill:Wind:
Aussen-T/F 451 07-06-2014 13:30:00 30.1 C 12.5 g/m*3 30.1 C 4.8 km/h
452 07-06-2014 13:35:00 30.3 C 12.94 g/m*3 30.3 C 3.2 km/h
453 07-06-2014 13:40:00 30.2 C 15.02 g/m*3 30.2 C 8.1 km/h
454 07-06-2014 13:45:00 30.4 C 13.94 g/m*3 30.4 C 8.1 km/h
455 07-06-2014 13:50:00 30.3 C 12.33 g/m*3 30.3 C 8.1 km/h
456 07-06-2014 13:55:00 30.1 C 12.81 g/m*3 30.1 C 8.1 km/h
457 07-06-2014 14:00:00 30.2 C 12.57 g/m*3 30.2 C 6.4 km/h
458 07-06-2014 14:05:00 30.3 C 13.25 g/m*3 30.3 C 3.2 km/h
459 07-06-2014 14:10:00 30.4 C 12.7 g/m*3 30.4 C 9.7 km/h
460 07-06-2014 14:15:00 30.6 C 12.53 g/m*3 30.6 C 3.2 km/h
461 07-06-2014 14:20:00 30.6 C 13.47 g/m*3 30.6 C 11.3 km/h
462 07-06-2014 14:25:00 30.7 C 12.91 g/m*3 30.7 C 9.7 km/h
463 07-06-2014 14:30:00 30.7 C 11.34 g/m*3 30.7 C 6.4 km/h
464 07-06-2014 14:35:00 30.7 C 11.34 g/m*3 30.7 C 8.1 km/h
465 07-06-2014 14:40:00 30.9 C 11.78 g/m*3 30.9 C 9.7 km/h
466 07-06-2014 14:45:00 30.9 C 13.37 g/m*3 30.9 C 6.4 km/h
467 07-06-2014 14:50:00 30.7 C 15.12 g/m*3 30.7 C 4.8 km/h
468 07-06-2014 14:55:00 30.6 C 12.53 g/m*3 30.6 C 4.8 km/h
469 07-06-2014 15:00:00 30.8 C 13.3 g/m*3 30.8 C 8.1 km/h
470 07-06-2014 15:05:00 31.1 C 12.87 g/m*3 31.1 C 6.4 km/h
471 07-06-2014 15:10:00 31.1 C 11.26 g/m*3 31.1 C 11.3 km/h
472 07-06-2014 15:15:00 31.1 C 12.23 g/m*3 31.1 C 4.8 km/h
473 07-06-2014 15:20:00 31.2 C 11.97 g/m*3 31.2 C 1.6 km/h
474 07-06-2014 15:25:00 31.3 C 12.03 g/m*3 31.3 C 4.8 km/h
475 07-06-2014 15:30:00 31.3 C 12.68 g/m*3 31.3 C 1.6 km/h
Sensor: Nr:Datum:Temp:Abs-Feuchte:Windchill:Wind:
Aussen-T/F 476 07-06-2014 15:35:00 31.1 C 14.48 g/m*3 31.1 C 1.6 km/h
477 07-06-2014 15:40:00 30.6 C 13.78 g/m*3 30.6 C 3.2 km/h
478 07-06-2014 15:45:00 30.5 C 12.46 g/m*3 30.5 C 3.2 km/h
479 07-06-2014 15:50:00 30.5 C 13.4 g/m*3 30.5 C 4.8 km/h
480 07-06-2014 15:55:00 30.1 C 15.24 g/m*3 30.1 C 4.8 km/h
481 07-06-2014 16:00:00 29.3 C 14.6 g/m*3 29.3 C 4.8 km/h
482 07-06-2014 16:05:00 28.8 C 15.63 g/m*3 28.8 C 3.2 km/h
483 07-06-2014 16:10:00 28.6 C 15.46 g/m*3 28.6 C 1.6 km/h
484 07-06-2014 16:15:00 28.2 C 15.95 g/m*3 28.2 C 0 km/h
485 07-06-2014 16:20:00 27.8 C 16.14 g/m*3 27.8 C 1.6 km/h
486 07-06-2014 16:25:00 27.8 C 16.41 g/m*3 27.8 C 1.6 km/h
487 07-06-2014 16:30:00 27.8 C 16.41 g/m*3 27.8 C 1.6 km/h
488 07-06-2014 16:35:00 27.7 C 16.58 g/m*3 27.7 C 0 km/h
489 07-06-2014 16:40:00 27.4 C 16.31 g/m*3 27.4 C 1.6 km/h
490 07-06-2014 16:45:00 27.2 C 16.39 g/m*3 27.2 C 1.6 km/h
491 07-06-2014 16:50:00 26.9 C 16.64 g/m*3 26.9 C 1.6 km/h
492 07-06-2014 16:55:00 26.7 C 16.45 g/m*3 26.7 C 0 km/h
493 07-06-2014 17:00:00 26.4 C 16.18 g/m*3 26.4 C 0 km/h
494 07-06-2014 17:05:00 26.3 C 16.59 g/m*3 26.3 C 0 km/h
495 07-06-2014 17:10:00 26.1 C 16.65 g/m*3 26.1 C 0 km/h
496 07-06-2014 17:15:00 25.8 C 16.37 g/m*3 25.8 C 0 km/h
497 07-06-2014 17:20:00 25.6 C 16.43 g/m*3 25.6 C 1.6 km/h
498 07-06-2014 17:25:00 25.4 C 16.48 g/m*3 25.4 C 1.6 km/h
499 07-06-2014 17:30:00 25.2 C 16.3 g/m*3 25.2 C 1.6 km/h
500 07-06-2014 17:35:00 25.1 C 15.97 g/m*3 25.1 C 0 km/h
Sensor: Nr:Datum:Temp:Abs-Feuchte:Windchill:Wind:
Aussen-T/F 501 07-06-2014 17:40:00 25 C 16.34 g/m*3 25 C 0 km/h
502 07-06-2014 17:45:00 24.9 C 16.02 g/m*3 24.9 C 0 km/h
503 07-06-2014 17:50:00 24.9 C 16.25 g/m*3 24.9 C 0 km/h
504 07-06-2014 17:55:00 25.1 C 16.67 g/m*3 25.1 C 0 km/h
505 07-06-2014 18:00:00 25.5 C 17.05 g/m*3 25.5 C 0 km/h
506 07-06-2014 18:05:00 25.9 C 17.43 g/m*3 25.9 C 1.6 km/h
507 07-06-2014 18:10:00 26.5 C 17.52 g/m*3 26.5 C 0 km/h
508 07-06-2014 18:15:00 26.6 C 17.12 g/m*3 26.6 C 1.6 km/h
509 07-06-2014 18:20:00 26.4 C 17.43 g/m*3 26.4 C 3.2 km/h
510 07-06-2014 18:25:00 26.5 C 17.52 g/m*3 26.5 C 0 km/h
511 07-06-2014 18:30:00 26.8 C 17.82 g/m*3 26.8 C 0 km/h
512 07-06-2014 18:35:00 27.1 C 17.6 g/m*3 27.1 C 0 km/h
513 07-06-2014 18:40:00 26.9 C 17.4 g/m*3 26.9 C 0 km/h
514 07-06-2014 18:45:00 26.7 C 17.21 g/m*3 26.7 C 0 km/h
515 07-06-2014 18:50:00 26.3 C 17.08 g/m*3 26.3 C 1.6 km/h
516 07-06-2014 18:55:00 25.8 C 16.85 g/m*3 25.8 C 1.6 km/h
517 07-06-2014 19:00:00 25.7 C 17 g/m*3 25.7 C 0 km/h
518 07-06-2014 19:05:00 25.6 C 16.67 g/m*3 25.6 C 0 km/h
519 07-06-2014 19:10:00 25.2 C 16.53 g/m*3 25.2 C 1.6 km/h
520 07-06-2014 19:15:00 24.9 C 16.48 g/m*3 24.9 C 0 km/h
521 07-06-2014 19:20:00 24.6 C 16.21 g/m*3 24.6 C 0 km/h
522 07-06-2014 19:25:00 24.4 C 16.02 g/m*3 24.4 C 0 km/h
523 07-06-2014 19:30:00 24.4 C 16.25 g/m*3 24.4 C 1.6 km/h
524 07-06-2014 19:35:00 24.4 C 16.25 g/m*3 24.4 C 0 km/h
525 07-06-2014 19:40:00 24.7 C 16.3 g/m*3 24.7 C 0 km/h
Sensor: Nr:Datum:Temp:Abs-Feuchte:Windchill:Wind:
Aussen-T/F 526 07-06-2014 19:45:00 24.9 C 16.25 g/m*3 24.9 C 0 km/h
527 07-06-2014 19:50:00 25 C 16.34 g/m*3 25 C 1.6 km/h
528 07-06-2014 19:55:00 25 C 16.57 g/m*3 25 C 1.6 km/h
529 07-06-2014 20:00:00 24.9 C 16.02 g/m*3 24.9 C 0 km/h
530 07-06-2014 20:05:00 24.9 C 16.02 g/m*3 24.9 C 0 km/h
531 07-06-2014 20:10:00 24.8 C 15.93 g/m*3 24.8 C 1.6 km/h
532 07-06-2014 20:15:00 24.7 C 15.62 g/m*3 24.7 C 0 km/h
533 07-06-2014 20:20:00 24.6 C 15.75 g/m*3 24.6 C 1.6 km/h
534 07-06-2014 20:25:00 24.4 C 15.58 g/m*3 24.4 C 0 km/h
535 07-06-2014 20:30:00 24.3 C 15.49 g/m*3 24.3 C 0 km/h
536 07-06-2014 20:35:00 24.1 C 15.32 g/m*3 24.1 C 1.6 km/h
537 07-06-2014 20:40:00 23.9 C 15.36 g/m*3 23.9 C 1.6 km/h
538 07-06-2014 20:45:00 23.8 C 15.27 g/m*3 23.8 C 0 km/h
539 07-06-2014 20:50:00 23.6 C 15.1 g/m*3 23.6 C 0 km/h
540 07-06-2014 20:55:00 23.4 C 15.14 g/m*3 23.4 C 0 km/h
541 07-06-2014 21:00:00 23.2 C 14.97 g/m*3 23.2 C 0 km/h
542 07-06-2014 21:05:00 23.1 C 14.88 g/m*3 23.1 C 0 km/h
543 07-06-2014 21:10:00 23 C 14.8 g/m*3 23 C 1.6 km/h
544 07-06-2014 21:15:00 22.8 C 14.63 g/m*3 22.8 C 1.6 km/h
545 07-06-2014 21:20:00 22.7 C 14.75 g/m*3 22.7 C 1.6 km/h
546 07-06-2014 21:25:00 22.5 C 14.58 g/m*3 22.5 C 1.6 km/h
547 07-06-2014 21:30:00 22.3 C 14.61 g/m*3 22.3 C 1.6 km/h
548 07-06-2014 21:35:00 22.2 C 14.53 g/m*3 22.2 C 1.6 km/h
549 07-06-2014 21:40:00 22 C 14.56 g/m*3 22 C 1.6 km/h
550 07-06-2014 21:45:00 21.9 C 14.47 g/m*3 21.9 C 1.6 km/h
Sensor: Nr:Datum:Temp:Abs-Feuchte:Windchill:Wind:
Aussen-T/F 551 07-06-2014 21:50:00 21.8 C 14.39 g/m*3 21.8 C 1.6 km/h
552 07-06-2014 21:55:00 21.8 C 14.39 g/m*3 21.8 C 1.6 km/h
553 07-06-2014 22:00:00 21.7 C 14.31 g/m*3 21.7 C 1.6 km/h
554 07-06-2014 22:05:00 21.6 C 14.22 g/m*3 21.6 C 1.6 km/h
555 07-06-2014 22:10:00 21.6 C 14.22 g/m*3 21.6 C 0 km/h
556 07-06-2014 22:15:00 21.4 C 14.25 g/m*3 21.4 C 0 km/h
557 07-06-2014 22:20:00 21.2 C 14.08 g/m*3 21.2 C 0 km/h
558 07-06-2014 22:25:00 21.1 C 14.19 g/m*3 21.1 C 1.6 km/h
559 07-06-2014 22:30:00 21 C 13.92 g/m*3 21 C 0 km/h
560 07-06-2014 22:35:00 20.9 C 14.02 g/m*3 20.9 C 1.6 km/h
561 07-06-2014 22:40:00 20.9 C 13.84 g/m*3 20.9 C 1.6 km/h
562 07-06-2014 22:45:00 20.9 C 14.02 g/m*3 20.9 C 0 km/h
563 07-06-2014 22:50:00 20.8 C 13.94 g/m*3 20.8 C 1.6 km/h
564 07-06-2014 22:55:00 20.8 C 13.76 g/m*3 20.8 C 1.6 km/h
565 07-06-2014 23:00:00 20.8 C 13.94 g/m*3 20.8 C 1.6 km/h
566 07-06-2014 23:05:00 20.7 C 13.86 g/m*3 20.7 C 0 km/h
567 07-06-2014 23:10:00 20.7 C 13.86 g/m*3 20.7 C 1.6 km/h
568 07-06-2014 23:15:00 20.6 C 13.78 g/m*3 20.6 C 0 km/h
569 07-06-2014 23:20:00 20.4 C 13.62 g/m*3 20.4 C 0 km/h
570 07-06-2014 23:25:00 20.3 C 13.72 g/m*3 20.3 C 0 km/h
571 07-06-2014 23:30:00 20.1 C 13.73 g/m*3 20.1 C 0 km/h
572 07-06-2014 23:35:00 20 C 13.65 g/m*3 20 C 1.6 km/h
573 07-06-2014 23:40:00 19.9 C 13.74 g/m*3 19.9 C 0 km/h
574 07-06-2014 23:45:00 19.8 C 13.66 g/m*3 19.8 C 0 km/h
575 07-06-2014 23:50:00 19.7 C 13.58 g/m*3 19.7 C 0 km/h
Sensor: Nr:Datum:Temp:Abs-Feuchte:Windchill:Wind:
Aussen-T/F 576 07-06-2014 23:55:00 19.6 C 13.51 g/m*3 19.6 C 0 km/h

Legende:
   Min
   Max


Maximal/Minimal-Werte vom 06.06.2014 - 07.06.2014

Sensor Min Max Avg
Temp
(Aussen-T/F)
6.8 °C
06-06-2014  05:30:00
31.3 °C
07-06-2014  15:25:00
18.99 °C
Abs-Feuchte
(Aussen-T/F)
7.11 g/m*3
06-06-2014  05:30:00
17.82 g/m*3
07-06-2014  18:30:00
11.1 g/m*3
Windchill
(Aussen-T/F)
6.8 C
06-06-2014  05:30:00
31.3 C
07-06-2014  15:25:00
18.95 C

Die Daten stammen von einer Davis Vantage Pro 2 Wetter-Station und werden unter Linux mit der Software wview2wettercgi und aufbereitet. Alle Angaben erfolgen ohne Gewähr für ihre Vollständigkeit oder Richtigkeit.
Kontakt: Rainer Krienke krienke@uni-koblenz.de . Meine Webseiten an der Uni Koblenz oder privat.
Version: $Revision: 0.78 $